createdAt,value
2019-03-15T00:00:12.085Z,7.23
2019-03-15T00:01:12.067Z,7.28
2019-03-15T00:02:12.039Z,7.15
2019-03-15T00:03:12.075Z,7.18
2019-03-15T00:04:12.013Z,7.24
2019-03-15T00:05:12.034Z,7.13
2019-03-15T00:06:11.999Z,7.14
2019-03-15T00:07:11.982Z,7.24
2019-03-15T00:08:11.982Z,7.17
2019-03-15T00:09:11.983Z,7.14
2019-03-15T00:10:11.976Z,7.20
2019-03-15T00:11:11.937Z,7.24
2019-03-15T00:12:11.969Z,7.17
2019-03-15T00:13:12.425Z,7.11
2019-03-15T00:14:11.916Z,7.20
2019-03-15T00:15:11.898Z,7.15
2019-03-15T00:16:11.892Z,7.17
2019-03-15T00:17:11.921Z,7.14
2019-03-15T00:18:11.861Z,7.10
2019-03-15T00:19:12.684Z,7.06
2019-03-15T00:20:11.892Z,7.02
2019-03-15T00:21:11.858Z,7.06
2019-03-15T00:22:11.844Z,7.10
2019-03-15T00:23:11.844Z,7.11
2019-03-15T00:24:11.802Z,7.13
2019-03-15T00:25:11.788Z,7.05
2019-03-15T00:26:11.810Z,7.06
2019-03-15T00:27:11.764Z,7.05
2019-03-15T00:28:11.765Z,7.02
2019-03-15T00:29:11.801Z,7.05
2019-03-15T00:30:11.731Z,7.05
2019-03-15T00:31:11.718Z,7.05
2019-03-15T00:32:11.779Z,7.03
2019-03-15T00:33:11.712Z,7.07
2019-03-15T00:34:11.691Z,6.99
2019-03-15T00:35:11.838Z,7.00
2019-03-15T00:36:11.661Z,6.99
2019-03-15T00:37:11.650Z,6.97
2019-03-15T00:38:11.679Z,6.97
2019-03-15T00:39:11.635Z,7.03
2019-03-15T00:40:11.667Z,7.00
2019-03-15T00:41:11.633Z,6.97
2019-03-15T00:42:11.598Z,7.02
2019-03-15T00:43:11.706Z,6.87
2019-03-15T00:44:11.571Z,6.88
2019-03-15T00:45:11.583Z,6.89
2019-03-15T00:46:11.593Z,6.85
2019-03-15T00:47:11.549Z,6.87
2019-03-15T00:48:11.569Z,6.89
2019-03-15T00:49:11.525Z,6.79
2019-03-15T00:50:11.506Z,6.82
2019-03-15T00:51:11.514Z,6.81
2019-03-15T00:52:11.531Z,6.82
2019-03-15T00:53:11.484Z,6.87
2019-03-15T00:54:11.493Z,6.92
2019-03-15T00:55:11.464Z,6.87
2019-03-15T00:56:11.761Z,6.85
2019-03-15T00:57:11.490Z,6.85
2019-03-15T00:58:11.419Z,6.84
2019-03-15T00:59:11.418Z,6.82
2019-03-15T01:00:11.424Z,6.78
2019-03-15T01:01:11.409Z,6.79
2019-03-15T01:02:11.491Z,6.78
2019-03-15T01:03:11.369Z,6.82
2019-03-15T01:04:11.399Z,6.84
2019-03-15T01:05:11.371Z,6.81
2019-03-15T01:06:11.347Z,6.77
2019-03-15T01:07:11.373Z,6.74
2019-03-15T01:08:11.542Z,6.75
2019-03-15T01:09:11.322Z,6.79
2019-03-15T01:10:11.295Z,6.66
2019-03-15T01:11:11.316Z,6.69
2019-03-15T01:12:11.270Z,6.63
2019-03-15T01:13:11.275Z,6.67
2019-03-15T01:14:11.263Z,6.69
2019-03-15T01:15:11.237Z,6.70
2019-03-15T01:16:11.335Z,6.72
2019-03-15T01:17:11.211Z,6.67
2019-03-15T01:18:11.208Z,6.67
2019-03-15T01:19:11.205Z,6.78
2019-03-15T01:20:11.189Z,6.66
2019-03-15T01:21:11.211Z,6.77
2019-03-15T01:22:11.159Z,6.69
2019-03-15T01:23:11.143Z,6.69
2019-03-15T01:24:11.160Z,6.67
2019-03-15T01:25:11.217Z,6.62
2019-03-15T01:26:11.139Z,6.64
2019-03-15T01:27:11.098Z,6.63
2019-03-15T01:28:11.092Z,6.67
2019-03-15T01:29:11.178Z,6.70
2019-03-15T01:30:11.097Z,6.69
2019-03-15T01:31:11.060Z,6.74
2019-03-15T01:32:11.147Z,6.67
2019-03-15T01:33:11.071Z,6.63
2019-03-15T01:34:11.028Z,6.72
2019-03-15T01:35:11.016Z,6.66
2019-03-15T01:36:11.116Z,6.66
2019-03-15T01:37:11.060Z,6.77
2019-03-15T01:38:10.983Z,6.78
2019-03-15T01:39:10.977Z,6.72
2019-03-15T01:40:11.026Z,6.74
2019-03-15T01:41:10.949Z,6.67
2019-03-15T01:42:10.976Z,6.69
2019-03-15T01:43:10.929Z,6.74
2019-03-15T01:44:10.929Z,6.75
2019-03-15T01:45:10.960Z,6.82
2019-03-15T01:46:10.898Z,6.79
2019-03-15T01:47:10.929Z,6.79
2019-03-15T01:48:10.913Z,6.87
2019-03-15T01:49:10.872Z,6.88
2019-03-15T01:50:10.892Z,6.88
2019-03-15T01:51:10.905Z,6.96
2019-03-15T01:52:10.837Z,6.93
2019-03-15T01:53:10.812Z,6.99
2019-03-15T01:54:10.841Z,6.89
2019-03-15T01:55:10.798Z,6.87
2019-03-15T01:56:10.924Z,6.92
2019-03-15T01:57:10.781Z,6.93
2019-03-15T01:58:10.771Z,6.95
2019-03-15T01:59:10.826Z,6.88
2019-03-15T02:00:10.749Z,6.89
2019-03-15T02:01:10.792Z,7.03
2019-03-15T02:02:10.717Z,6.99
2019-03-15T02:03:10.706Z,7.03
2019-03-15T02:04:10.734Z,7.00
2019-03-15T02:05:10.765Z,7.02
2019-03-15T02:06:10.709Z,6.97
2019-03-15T02:07:10.725Z,6.97
2019-03-15T02:08:10.670Z,7.02
2019-03-15T02:09:10.636Z,7.02
2019-03-15T02:10:11.083Z,7.03
2019-03-15T02:11:10.624Z,6.96
2019-03-15T02:12:10.610Z,7.07
2019-03-15T02:13:10.621Z,7.03
2019-03-15T02:14:10.677Z,7.05
2019-03-15T02:15:10.610Z,7.02
2019-03-15T02:16:10.602Z,6.99
2019-03-15T02:17:10.616Z,7.03
2019-03-15T02:18:10.545Z,7.00
2019-03-15T02:19:10.629Z,7.06
2019-03-15T02:20:10.556Z,6.99
2019-03-15T02:21:10.514Z,7.02
2019-03-15T02:22:10.526Z,7.05
2019-03-15T02:23:10.487Z,7.05
2019-03-15T02:24:10.485Z,6.99
2019-03-15T02:25:10.497Z,7.02
2019-03-15T02:26:10.506Z,7.02
2019-03-15T02:27:10.466Z,7.02
2019-03-15T02:28:10.479Z,7.03
2019-03-15T02:29:10.421Z,7.03
2019-03-15T02:30:10.435Z,7.00
2019-03-15T02:31:10.504Z,7.02
2019-03-15T02:32:10.409Z,7.03
2019-03-15T02:33:10.399Z,7.03
2019-03-15T02:34:10.405Z,7.02
2019-03-15T02:35:10.367Z,7.00
2019-03-15T02:36:10.389Z,6.99
2019-03-15T02:37:10.378Z,6.99
2019-03-15T02:38:10.342Z,7.10
2019-03-15T02:39:10.380Z,7.00
2019-03-15T02:40:10.377Z,7.02
2019-03-15T02:41:10.296Z,7.00
2019-03-15T02:42:10.422Z,7.06
2019-03-15T02:43:10.295Z,7.05
2019-03-15T02:44:10.306Z,7.05
2019-03-15T02:45:10.287Z,7.07
2019-03-15T02:46:10.270Z,7.06
2019-03-15T02:47:10.219Z,7.02
2019-03-15T02:48:10.226Z,7.05
2019-03-15T02:49:10.282Z,7.05
2019-03-15T02:50:10.210Z,7.07
2019-03-15T02:51:10.190Z,7.10
2019-03-15T02:52:10.174Z,7.11
2019-03-15T02:53:10.187Z,7.07
2019-03-15T02:54:10.150Z,7.06
2019-03-15T02:55:10.154Z,7.07
2019-03-15T02:56:10.155Z,7.05
2019-03-15T02:57:10.122Z,7.06
2019-03-15T02:58:10.144Z,7.00
2019-03-15T02:59:10.112Z,7.06
2019-03-15T03:00:10.093Z,7.03
2019-03-15T03:01:10.129Z,7.11
2019-03-15T03:02:10.115Z,7.06
2019-03-15T03:03:10.074Z,7.06
2019-03-15T03:04:10.054Z,7.03
2019-03-15T03:05:10.061Z,7.06
2019-03-15T03:06:10.035Z,6.99
2019-03-15T03:07:10.030Z,7.06
2019-03-15T03:08:10.017Z,6.99
2019-03-15T03:09:10.038Z,7.03
2019-03-15T03:10:10.018Z,6.99
2019-03-15T03:11:10.001Z,7.00
2019-03-15T03:12:09.955Z,6.97
2019-03-15T03:13:10.749Z,7.03
2019-03-15T03:14:09.963Z,7.05
2019-03-15T03:15:09.923Z,7.02
2019-03-15T03:16:09.948Z,7.05
2019-03-15T03:17:09.897Z,7.06
2019-03-15T03:18:09.986Z,7.02
2019-03-15T03:19:09.891Z,7.05
2019-03-15T03:20:09.869Z,7.06
2019-03-15T03:21:09.850Z,7.00
2019-03-15T03:22:09.840Z,7.02
2019-03-15T03:23:09.880Z,7.00
2019-03-15T03:24:09.839Z,7.07
2019-03-15T03:25:09.876Z,7.00
2019-03-15T03:26:09.795Z,7.07
2019-03-15T03:27:09.827Z,7.06
2019-03-15T03:28:09.790Z,7.06
2019-03-15T03:29:09.784Z,7.02
2019-03-15T03:30:09.857Z,7.00
2019-03-15T03:31:09.744Z,7.05
2019-03-15T03:32:09.754Z,7.02
2019-03-15T03:33:12.338Z,7.05
2019-03-15T03:34:11.713Z,6.97
2019-03-15T03:35:10.704Z,7.02
2019-03-15T03:36:09.764Z,7.05
2019-03-15T03:37:09.738Z,7.00
2019-03-15T03:38:09.701Z,6.96
2019-03-15T03:39:09.661Z,6.99
2019-03-15T03:40:09.765Z,7.03
2019-03-15T03:41:09.634Z,6.96
2019-03-15T03:42:09.626Z,6.95
2019-03-15T03:43:09.642Z,7.02
2019-03-15T03:44:09.602Z,7.02
2019-03-15T03:45:09.622Z,6.99
2019-03-15T03:46:09.595Z,6.96
2019-03-15T03:47:09.669Z,6.97
2019-03-15T03:48:09.585Z,6.87
2019-03-15T03:49:09.563Z,6.87
2019-03-15T03:50:09.605Z,6.82
2019-03-15T03:51:09.536Z,6.87
2019-03-15T03:52:09.545Z,7.00
2019-03-15T03:53:09.605Z,6.93
2019-03-15T03:54:09.493Z,6.97
2019-03-15T03:55:09.485Z,6.84
2019-03-15T03:56:09.518Z,6.88
2019-03-15T03:57:10.490Z,6.89
2019-03-15T03:58:09.470Z,6.87
2019-03-15T03:59:09.447Z,6.85
2019-03-15T04:00:09.477Z,6.92
2019-03-15T04:01:09.437Z,6.89
2019-03-15T04:02:09.504Z,6.93
2019-03-15T04:03:09.397Z,6.84
2019-03-15T04:04:09.442Z,6.84
2019-03-15T04:05:09.373Z,6.89
2019-03-15T04:06:09.463Z,6.85
2019-03-15T04:07:09.365Z,6.88
2019-03-15T04:08:09.347Z,6.84
2019-03-15T04:09:09.381Z,6.84
2019-03-15T04:10:09.333Z,6.81
2019-03-15T04:11:09.308Z,6.84
2019-03-15T04:12:09.317Z,6.89
2019-03-15T04:13:09.282Z,6.78
2019-03-15T04:14:09.335Z,6.79
2019-03-15T04:15:09.301Z,6.87
2019-03-15T04:16:09.266Z,6.85
2019-03-15T04:17:09.244Z,6.87
2019-03-15T04:18:09.226Z,6.89
2019-03-15T04:19:09.217Z,6.82
2019-03-15T04:20:09.224Z,6.93
2019-03-15T04:21:09.320Z,6.89
2019-03-15T04:22:09.186Z,6.92
2019-03-15T04:23:09.178Z,6.87
2019-03-15T04:24:09.196Z,6.92
2019-03-15T04:25:09.162Z,6.88
2019-03-15T04:26:09.162Z,6.82
2019-03-15T04:27:09.142Z,6.88
2019-03-15T04:28:09.160Z,6.88
2019-03-15T04:29:09.108Z,7.00
2019-03-15T04:30:09.217Z,6.97
2019-03-15T04:31:09.110Z,6.92
2019-03-15T04:32:09.088Z,6.99
2019-03-15T04:33:09.102Z,6.88
2019-03-15T04:34:09.053Z,6.97
2019-03-15T04:35:09.042Z,6.93
2019-03-15T04:36:09.071Z,6.84
2019-03-15T04:37:09.486Z,6.88
2019-03-15T04:38:09.012Z,6.89
2019-03-15T04:39:09.003Z,6.89
2019-03-15T04:40:09.129Z,6.82
2019-03-15T04:41:08.974Z,6.88
2019-03-15T04:42:08.985Z,6.85
2019-03-15T04:43:08.964Z,6.87
2019-03-15T04:44:08.951Z,6.88
2019-03-15T04:45:08.933Z,6.96
2019-03-15T04:46:08.925Z,6.92
2019-03-15T04:47:08.984Z,7.02
2019-03-15T04:48:08.909Z,6.97
2019-03-15T04:49:08.963Z,6.97
2019-03-15T04:50:08.876Z,6.99
2019-03-15T04:51:08.865Z,7.02
2019-03-15T04:52:08.913Z,7.02
2019-03-15T04:53:08.847Z,7.03
2019-03-15T04:54:08.832Z,7.02
2019-03-15T04:55:09.001Z,7.06
2019-03-15T04:56:08.809Z,7.06
2019-03-15T04:57:08.801Z,7.13
2019-03-15T04:58:08.847Z,7.03
2019-03-15T04:59:08.784Z,7.05
2019-03-15T05:00:08.778Z,7.14
2019-03-15T05:01:08.794Z,7.18
2019-03-15T05:02:08.787Z,7.14
2019-03-15T05:03:08.754Z,7.20
2019-03-15T05:04:08.729Z,7.17
2019-03-15T05:05:08.723Z,7.13
2019-03-15T05:06:08.775Z,7.07
2019-03-15T05:07:08.689Z,7.14
2019-03-15T05:08:08.757Z,7.18
2019-03-15T05:09:08.672Z,7.03
2019-03-15T05:10:08.708Z,7.14
2019-03-15T05:11:08.666Z,7.18
2019-03-15T05:12:08.645Z,7.20
2019-03-15T05:13:08.618Z,7.20
2019-03-15T05:14:08.617Z,7.17
2019-03-15T05:15:08.637Z,7.15
2019-03-15T05:16:08.588Z,7.07
2019-03-15T05:17:08.601Z,7.17
2019-03-15T05:18:08.564Z,7.14
2019-03-15T05:19:08.555Z,7.13
2019-03-15T05:20:08.565Z,7.13
2019-03-15T05:21:08.531Z,7.14
2019-03-15T05:22:08.522Z,7.17
2019-03-15T05:23:08.526Z,7.06
2019-03-15T05:24:08.506Z,7.07
2019-03-15T05:25:08.500Z,7.07
2019-03-15T05:26:08.514Z,7.03
2019-03-15T05:27:08.470Z,7.02
2019-03-15T05:28:08.477Z,7.06
2019-03-15T05:29:08.466Z,7.13
2019-03-15T05:30:08.445Z,7.05
2019-03-15T05:31:08.423Z,7.00
2019-03-15T05:32:08.413Z,7.05
2019-03-15T05:33:08.451Z,7.10
2019-03-15T05:34:08.389Z,7.10
2019-03-15T05:35:08.379Z,6.99
2019-03-15T05:36:08.382Z,7.07
2019-03-15T05:37:08.380Z,7.03
2019-03-15T05:38:08.432Z,7.02
2019-03-15T05:39:08.366Z,7.02
2019-03-15T05:40:08.326Z,6.99
2019-03-15T05:41:08.312Z,7.00
2019-03-15T05:42:08.303Z,7.00
2019-03-15T05:43:08.341Z,7.00
2019-03-15T05:44:08.283Z,6.99
2019-03-15T05:45:08.315Z,7.02
2019-03-15T05:46:08.261Z,7.07
2019-03-15T05:47:08.246Z,7.00
2019-03-15T05:48:08.237Z,7.05
2019-03-15T05:49:08.238Z,7.10
2019-03-15T05:50:08.215Z,6.97
2019-03-15T05:51:08.226Z,7.03
2019-03-15T05:52:08.192Z,7.00
2019-03-15T05:53:08.181Z,6.99
2019-03-15T05:54:08.186Z,7.02
2019-03-15T05:55:08.174Z,7.07
2019-03-15T05:56:08.150Z,7.06
2019-03-15T05:57:08.192Z,6.99
2019-03-15T05:58:08.125Z,7.00
2019-03-15T05:59:08.113Z,7.03
2019-03-15T06:00:08.129Z,6.99
2019-03-15T06:01:08.096Z,7.05
2019-03-15T06:02:08.083Z,7.07
2019-03-15T06:03:08.117Z,7.03
2019-03-15T06:04:08.058Z,7.10
2019-03-15T06:05:08.943Z,7.03
2019-03-15T06:06:08.048Z,7.06
2019-03-15T06:07:08.025Z,7.06
2019-03-15T06:08:08.017Z,7.10
2019-03-15T06:09:08.052Z,7.07
2019-03-15T06:10:07.994Z,7.03
2019-03-15T06:11:07.993Z,7.00
2019-03-15T06:12:07.986Z,7.11
2019-03-15T06:13:07.963Z,7.00
2019-03-15T06:14:07.948Z,7.11
2019-03-15T06:15:08.021Z,7.10
2019-03-15T06:16:07.934Z,7.11
2019-03-15T06:17:07.916Z,7.13
2019-03-15T06:18:07.920Z,7.07
2019-03-15T06:19:07.894Z,7.24
2019-03-15T06:20:07.919Z,7.18
2019-03-15T06:21:07.897Z,7.24
2019-03-15T06:22:07.868Z,7.21
2019-03-15T06:23:07.854Z,7.21
2019-03-15T06:24:07.845Z,7.15
2019-03-15T06:25:07.832Z,7.17
2019-03-15T06:26:07.831Z,7.32
2019-03-15T06:27:07.854Z,7.17
2019-03-15T06:28:07.806Z,7.25
2019-03-15T06:29:07.790Z,7.15
2019-03-15T06:30:07.774Z,7.28
2019-03-15T06:31:07.778Z,7.24
2019-03-15T06:32:07.764Z,7.29
2019-03-15T06:33:07.765Z,7.18
2019-03-15T06:34:07.729Z,7.25
2019-03-15T06:35:07.732Z,7.23
2019-03-15T06:36:07.714Z,7.18
2019-03-15T06:37:07.698Z,7.28
2019-03-15T06:38:07.687Z,7.29
2019-03-15T06:39:08.426Z,7.25
2019-03-15T06:40:07.663Z,7.17
2019-03-15T06:41:07.673Z,7.31
2019-03-15T06:42:07.647Z,7.33
2019-03-15T06:43:07.632Z,7.29
2019-03-15T06:44:07.619Z,7.23
2019-03-15T06:45:07.628Z,7.17
2019-03-15T06:46:07.610Z,7.25
2019-03-15T06:47:07.590Z,7.15
2019-03-15T06:48:07.580Z,7.21
2019-03-15T06:49:07.565Z,7.18
2019-03-15T06:50:07.568Z,7.14
2019-03-15T06:51:09.270Z,7.18
2019-03-15T06:52:07.547Z,7.21
2019-03-15T06:53:07.520Z,7.20
2019-03-15T06:54:11.751Z,7.20
2019-03-15T06:55:07.518Z,7.28
2019-03-15T06:56:07.491Z,7.28
2019-03-15T06:57:07.518Z,7.24
2019-03-15T06:58:07.464Z,7.21
2019-03-15T06:59:07.457Z,7.24
2019-03-15T07:00:07.444Z,7.24
2019-03-15T07:01:07.451Z,7.15
2019-03-15T07:02:07.420Z,7.11
2019-03-15T07:03:07.445Z,7.15
2019-03-15T07:04:07.424Z,7.18
2019-03-15T07:05:07.392Z,7.11
2019-03-15T07:06:07.378Z,7.13
2019-03-15T07:07:07.369Z,7.23
2019-03-15T07:08:07.360Z,7.21
2019-03-15T07:09:07.564Z,7.14
2019-03-15T07:10:07.344Z,7.11
2019-03-15T07:11:07.344Z,7.14
2019-03-15T07:12:09.745Z,7.13
2019-03-15T07:13:07.304Z,7.14
2019-03-15T07:14:07.294Z,7.24
2019-03-15T07:15:07.311Z,7.15
2019-03-15T07:16:07.279Z,7.11
2019-03-15T07:17:07.273Z,7.18
2019-03-15T07:18:07.995Z,7.06
2019-03-15T07:19:07.238Z,7.02
2019-03-15T07:20:07.230Z,7.06
2019-03-15T07:21:07.252Z,7.03
2019-03-15T07:22:07.213Z,7.05
2019-03-15T07:23:07.193Z,7.07
2019-03-15T07:24:07.180Z,7.05
2019-03-15T07:25:07.171Z,7.05
2019-03-15T07:26:07.161Z,7.02
2019-03-15T07:27:12.927Z,7.05
2019-03-15T07:28:08.138Z,7.05
2019-03-15T07:29:07.126Z,7.05
2019-03-15T07:30:07.118Z,7.03
2019-03-15T07:31:07.108Z,7.06
2019-03-15T07:32:07.117Z,7.10
2019-03-15T07:33:07.081Z,7.02
2019-03-15T07:34:07.094Z,7.03
2019-03-15T07:35:07.460Z,6.97
2019-03-15T07:36:07.050Z,6.99
2019-03-15T07:37:07.038Z,7.03
2019-03-15T07:38:07.060Z,6.96
2019-03-15T07:39:07.013Z,6.95
2019-03-15T07:40:07.008Z,6.99
2019-03-15T07:41:06.999Z,6.97
2019-03-15T07:42:07.142Z,6.87
2019-03-15T07:43:07.017Z,6.88
2019-03-15T07:44:06.973Z,6.88
2019-03-15T07:45:06.955Z,7.00
2019-03-15T07:46:06.942Z,6.87
2019-03-15T07:47:06.927Z,6.99
2019-03-15T07:48:06.918Z,7.06
2019-03-15T07:49:06.966Z,6.97
2019-03-15T07:50:06.892Z,7.00
2019-03-15T07:51:06.882Z,6.95
2019-03-15T07:52:06.871Z,6.99
2019-03-15T07:53:06.875Z,7.02
2019-03-15T07:54:06.851Z,7.03
2019-03-15T07:55:06.904Z,6.97
2019-03-15T07:56:06.827Z,7.06
2019-03-15T07:57:06.822Z,7.03
2019-03-15T07:58:07.486Z,7.00
2019-03-15T07:59:06.796Z,7.02
2019-03-15T08:00:06.787Z,7.05
2019-03-15T08:01:06.849Z,6.99
2019-03-15T08:02:06.760Z,7.05
2019-03-15T08:03:06.752Z,7.05
2019-03-15T08:04:16.784Z,7.02
2019-03-15T08:05:07.726Z,7.00
2019-03-15T08:06:06.729Z,7.00
2019-03-15T08:07:06.719Z,7.00
2019-03-15T08:08:06.747Z,7.10
2019-03-15T08:09:06.687Z,7.05
2019-03-15T08:10:06.706Z,7.02
2019-03-15T08:11:06.664Z,7.00
2019-03-15T08:12:06.666Z,7.11
2019-03-15T08:13:06.639Z,7.06
2019-03-15T08:14:06.674Z,7.06
2019-03-15T08:15:06.625Z,7.06
2019-03-15T08:16:06.634Z,7.13
2019-03-15T08:17:06.597Z,7.17
2019-03-15T08:18:06.611Z,7.02
2019-03-15T08:19:06.584Z,7.15
2019-03-15T08:20:06.563Z,7.17
2019-03-15T08:21:06.614Z,6.99
2019-03-15T08:22:06.543Z,7.18
2019-03-15T08:23:08.633Z,7.18
2019-03-15T08:24:06.534Z,7.11
2019-03-15T08:25:06.507Z,7.14
2019-03-15T08:26:06.519Z,7.06
2019-03-15T08:27:06.488Z,7.11
2019-03-15T08:28:06.536Z,7.10
2019-03-15T08:29:09.473Z,7.18
2019-03-15T08:30:06.452Z,7.11
2019-03-15T08:31:06.443Z,7.15
2019-03-15T08:32:06.447Z,7.06
2019-03-15T08:33:10.458Z,7.05
2019-03-15T08:34:06.431Z,7.10
2019-03-15T08:35:06.400Z,7.03
2019-03-15T08:36:06.388Z,7.00
2019-03-15T08:37:06.374Z,7.05
2019-03-15T08:38:06.380Z,7.05
2019-03-15T08:39:06.355Z,7.05
2019-03-15T08:40:06.342Z,7.03
2019-03-15T08:41:06.346Z,7.03
2019-03-15T08:42:06.319Z,6.93
2019-03-15T08:43:06.310Z,6.97
2019-03-15T08:44:06.316Z,6.93
2019-03-15T08:45:06.289Z,7.05
2019-03-15T08:46:06.277Z,6.99
2019-03-15T08:47:06.267Z,7.06
2019-03-15T08:48:06.293Z,7.05
2019-03-15T08:49:06.246Z,7.02
2019-03-15T08:50:06.253Z,7.00
2019-03-15T08:51:06.223Z,7.10
2019-03-15T08:52:06.210Z,7.00
2019-03-15T08:53:06.202Z,7.02
2019-03-15T08:54:06.215Z,7.11
2019-03-15T08:55:06.192Z,7.11
2019-03-15T08:56:06.170Z,7.05
2019-03-15T08:57:06.156Z,7.21
2019-03-15T08:58:13.910Z,7.11
2019-03-15T08:59:07.132Z,7.14
2019-03-15T09:00:06.147Z,7.14
2019-03-15T09:01:06.127Z,7.14
2019-03-15T09:02:06.102Z,7.14
2019-03-15T09:03:06.090Z,7.15
2019-03-15T09:04:06.079Z,7.18
2019-03-15T09:05:06.069Z,7.18
2019-03-15T09:06:06.105Z,7.28
2019-03-15T09:07:06.058Z,7.20
2019-03-15T09:08:06.066Z,7.24
2019-03-15T09:09:06.024Z,7.18
2019-03-15T09:10:06.012Z,7.24
2019-03-15T09:11:06.002Z,7.29
2019-03-15T09:12:06.035Z,7.28
2019-03-15T09:13:06.001Z,7.28
2019-03-15T09:14:05.986Z,7.29
2019-03-15T09:15:05.958Z,7.39
2019-03-15T09:16:05.949Z,7.31
2019-03-15T09:17:05.935Z,7.33
2019-03-15T09:18:05.972Z,7.31
2019-03-15T09:19:05.917Z,7.35
2019-03-15T09:20:05.919Z,7.32
2019-03-15T09:21:05.893Z,7.36
2019-03-15T09:22:05.885Z,7.36
2019-03-15T09:23:05.870Z,7.40
2019-03-15T09:24:05.885Z,7.50
2019-03-15T09:25:18.552Z,7.51
2019-03-15T09:26:10.196Z,7.60
2019-03-15T09:27:05.827Z,7.63
2019-03-15T09:28:05.818Z,7.53
2019-03-15T09:29:05.818Z,7.67
2019-03-15T09:30:05.835Z,7.60
2019-03-15T09:31:07.522Z,7.58
2019-03-15T09:32:09.149Z,7.73
2019-03-15T09:33:05.773Z,7.76
2019-03-15T09:34:05.755Z,7.82
2019-03-15T09:35:05.743Z,7.83
2019-03-15T09:36:05.795Z,7.93
2019-03-15T09:37:05.719Z,7.98
2019-03-15T09:38:05.726Z,7.95
2019-03-15T09:39:05.695Z,8.03
2019-03-15T09:40:05.683Z,8.03
2019-03-15T09:41:05.672Z,8.03
2019-03-15T09:42:05.706Z,8.06
2019-03-15T09:43:05.674Z,8.12
2019-03-15T09:44:05.639Z,8.15
2019-03-15T09:45:05.628Z,8.09
2019-03-15T09:46:05.642Z,8.20
2019-03-15T09:47:05.608Z,8.23
2019-03-15T09:48:05.594Z,8.23
2019-03-15T09:49:05.624Z,8.26
2019-03-15T09:50:05.577Z,8.27
2019-03-15T09:51:05.565Z,8.26
2019-03-15T09:52:05.564Z,8.20
2019-03-15T09:53:06.107Z,8.23
2019-03-15T09:54:05.528Z,8.24
2019-03-15T09:55:05.553Z,8.27
2019-03-15T09:56:05.507Z,8.26
2019-03-15T09:57:05.500Z,8.33
2019-03-15T09:58:05.498Z,8.30
2019-03-15T09:59:05.475Z,8.38
2019-03-15T10:00:05.463Z,8.44
2019-03-15T10:01:05.755Z,8.30
2019-03-15T10:02:07.833Z,8.37
2019-03-15T10:03:05.433Z,8.45
2019-03-15T10:04:05.453Z,8.51
2019-03-15T10:05:10.679Z,8.49
2019-03-15T10:06:14.828Z,8.46
2019-03-15T10:07:06.406Z,8.48
2019-03-15T10:08:05.415Z,8.51
2019-03-15T10:09:05.364Z,8.56
2019-03-15T10:10:13.540Z,8.58
2019-03-15T10:11:06.342Z,8.58
2019-03-15T10:12:05.331Z,8.60
2019-03-15T10:13:06.462Z,8.60
2019-03-15T10:14:05.345Z,8.63
2019-03-15T10:15:07.769Z,8.66
2019-03-15T10:16:05.300Z,8.64
2019-03-15T10:17:05.275Z,8.67
2019-03-15T10:18:05.274Z,8.64
2019-03-15T10:19:05.252Z,8.64
2019-03-15T10:20:05.261Z,8.66
2019-03-15T10:21:05.240Z,8.67
2019-03-15T10:22:05.238Z,8.74
2019-03-15T10:23:06.450Z,8.78
2019-03-15T10:24:05.194Z,8.76
2019-03-15T10:25:05.190Z,8.82
2019-03-15T10:26:05.187Z,8.74
2019-03-15T10:27:05.166Z,8.82
2019-03-15T10:28:05.167Z,8.91
2019-03-15T10:29:14.709Z,8.84
2019-03-15T10:30:06.132Z,8.89
2019-03-15T10:31:05.122Z,9.04
2019-03-15T10:32:05.145Z,9.11
2019-03-15T10:33:05.111Z,9.02
2019-03-15T10:34:05.889Z,9.22
2019-03-15T10:35:05.228Z,9.19
2019-03-15T10:36:05.071Z,9.18
2019-03-15T10:37:06.280Z,9.32
2019-03-15T10:38:05.115Z,9.28
2019-03-15T10:39:05.029Z,9.34
2019-03-15T10:40:05.022Z,9.41
2019-03-15T10:41:05.009Z,9.48
2019-03-15T10:42:04.999Z,9.40
2019-03-15T10:43:04.995Z,9.47
2019-03-15T10:44:05.035Z,9.51
2019-03-15T10:45:04.983Z,9.48
2019-03-15T10:46:06.257Z,9.54
2019-03-15T10:47:04.945Z,9.58
2019-03-15T10:48:07.947Z,9.64
2019-03-15T10:49:04.920Z,9.62
2019-03-15T10:50:04.907Z,9.69
2019-03-15T10:51:04.950Z,9.76
2019-03-15T10:52:04.888Z,9.77
2019-03-15T10:53:04.879Z,9.94
2019-03-15T10:54:04.867Z,9.95
2019-03-15T10:55:04.860Z,10.04
2019-03-15T10:56:04.845Z,10.07
2019-03-15T10:57:04.846Z,10.09
2019-03-15T10:58:04.851Z,10.13
2019-03-15T10:59:04.816Z,10.22
2019-03-15T11:00:04.797Z,10.35
2019-03-15T11:01:04.797Z,10.40
2019-03-15T11:02:04.793Z,10.35
2019-03-15T11:03:04.769Z,10.59
2019-03-15T11:04:04.790Z,10.56
2019-03-15T11:05:04.754Z,10.60
2019-03-15T11:06:04.736Z,10.59
2019-03-15T11:07:04.723Z,10.61
2019-03-15T11:08:04.726Z,10.72
2019-03-15T11:09:04.714Z,10.76
2019-03-15T11:10:04.726Z,10.72
2019-03-15T11:11:04.682Z,10.75
2019-03-15T11:12:04.669Z,10.86
2019-03-15T11:13:04.673Z,10.86
2019-03-15T11:14:04.654Z,10.84
2019-03-15T11:15:04.665Z,10.76
2019-03-15T11:16:04.635Z,10.90
2019-03-15T11:17:04.614Z,10.90
2019-03-15T11:18:04.602Z,10.99
2019-03-15T11:19:04.602Z,10.94
2019-03-15T11:20:04.579Z,11.05
2019-03-15T11:21:04.626Z,11.04
2019-03-15T11:22:04.559Z,11.11
2019-03-15T11:23:04.547Z,11.18
2019-03-15T11:24:04.544Z,11.07
2019-03-15T11:25:04.531Z,11.12
2019-03-15T11:26:13.443Z,11.08
2019-03-15T11:27:05.545Z,11.19
2019-03-15T11:28:04.493Z,11.25
2019-03-15T11:29:04.480Z,11.23
2019-03-15T11:30:04.470Z,11.35
2019-03-15T11:31:04.463Z,11.36
2019-03-15T11:32:04.463Z,11.43
2019-03-15T11:33:04.490Z,11.51
2019-03-15T11:34:04.427Z,11.50
2019-03-15T11:35:04.418Z,11.50
2019-03-15T11:36:04.402Z,11.60
2019-03-15T11:37:04.394Z,11.66
2019-03-15T11:38:04.385Z,11.72
2019-03-15T11:39:04.423Z,11.84
2019-03-15T11:40:04.362Z,11.81
2019-03-15T11:41:04.349Z,11.99
2019-03-15T11:42:04.338Z,11.99
2019-03-15T11:43:04.344Z,12.07
2019-03-15T11:44:04.332Z,12.10
2019-03-15T11:45:04.351Z,12.10
2019-03-15T11:46:04.294Z,12.21
2019-03-15T11:47:04.294Z,12.24
2019-03-15T11:48:04.707Z,12.32
2019-03-15T11:49:04.289Z,12.31
2019-03-15T11:50:04.258Z,12.36
2019-03-15T11:51:04.321Z,12.36
2019-03-15T11:52:04.230Z,12.37
2019-03-15T11:53:04.219Z,12.42
2019-03-15T11:54:04.204Z,12.49
2019-03-15T11:55:04.208Z,12.36
2019-03-15T11:56:04.183Z,12.36
2019-03-15T11:57:04.237Z,12.35
2019-03-15T11:58:04.161Z,12.39
2019-03-15T11:59:04.155Z,12.27
2019-03-15T12:00:04.142Z,12.25
2019-03-15T12:01:04.140Z,12.21
2019-03-15T12:02:04.584Z,12.32
2019-03-15T12:03:04.145Z,12.24
2019-03-15T12:04:04.096Z,12.21
2019-03-15T12:05:04.084Z,12.15
2019-03-15T12:06:04.079Z,12.20
2019-03-15T12:07:04.082Z,12.18
2019-03-15T12:08:04.055Z,12.17
2019-03-15T12:09:04.041Z,12.06
2019-03-15T12:10:04.072Z,12.06
2019-03-15T12:11:04.035Z,12.09
2019-03-15T12:12:04.009Z,12.07
2019-03-15T12:13:04.016Z,12.03
2019-03-15T12:14:03.987Z,12.04
2019-03-15T12:15:03.976Z,12.07
2019-03-15T12:16:03.966Z,12.02
2019-03-15T12:17:03.999Z,12.07
2019-03-15T12:18:03.953Z,11.94
2019-03-15T12:19:03.951Z,11.86
2019-03-15T12:20:03.925Z,11.86
2019-03-15T12:21:03.933Z,11.87
2019-03-15T12:22:06.484Z,11.83
2019-03-15T12:23:03.888Z,11.73
2019-03-15T12:24:03.914Z,11.69
2019-03-15T12:25:03.871Z,11.54
2019-03-15T12:26:03.853Z,11.51
2019-03-15T12:27:03.859Z,11.45
2019-03-15T12:28:03.833Z,11.43
2019-03-15T12:29:03.823Z,11.41
2019-03-15T12:30:03.884Z,11.44
2019-03-15T12:31:03.800Z,11.41
2019-03-15T12:32:03.793Z,11.43
2019-03-15T12:33:03.781Z,11.37
2019-03-15T12:34:03.776Z,11.37
2019-03-15T12:35:03.766Z,11.26
2019-03-15T12:36:03.811Z,11.32
2019-03-15T12:37:03.732Z,11.17
2019-03-15T12:38:03.722Z,11.26
2019-03-15T12:39:03.715Z,11.23
2019-03-15T12:40:03.714Z,11.12
2019-03-15T12:41:03.703Z,11.15
2019-03-15T12:42:03.690Z,11.12
2019-03-15T12:43:03.733Z,11.18
2019-03-15T12:44:03.660Z,11.15
2019-03-15T12:45:03.647Z,11.11
2019-03-15T12:46:03.637Z,11.15
2019-03-15T12:47:05.995Z,11.18
2019-03-15T12:48:03.608Z,11.18
2019-03-15T12:49:03.668Z,11.19
2019-03-15T12:50:03.593Z,11.18
2019-03-15T12:51:03.580Z,11.22
2019-03-15T12:52:03.568Z,11.19
2019-03-15T12:53:03.563Z,11.18
2019-03-15T12:54:03.570Z,11.14
2019-03-15T12:55:03.537Z,11.17
2019-03-15T12:56:03.547Z,11.15
2019-03-15T12:57:03.515Z,11.12
2019-03-15T12:58:03.537Z,11.15
2019-03-15T12:59:03.493Z,11.14
2019-03-15T13:00:03.495Z,11.11
2019-03-15T13:01:03.484Z,11.17
2019-03-15T13:02:03.485Z,11.15
2019-03-15T13:03:03.456Z,11.11
2019-03-15T13:04:03.436Z,11.14
2019-03-15T13:05:03.422Z,11.10
2019-03-15T13:06:03.433Z,11.08
2019-03-15T13:07:03.404Z,11.15
2019-03-15T13:08:03.391Z,11.08
2019-03-15T13:09:04.663Z,11.18
2019-03-15T13:10:03.370Z,11.08
2019-03-15T13:11:03.395Z,10.99
2019-03-15T13:12:03.406Z,10.97
2019-03-15T13:13:03.338Z,10.99